sensor_id;sensor_type;location;lat;lon;timestamp;temperature;humidity
28247;DHT22;66191;53.178;22.058;2023-03-01T00:02:17;1.00;93.00
28247;DHT22;66191;53.178;22.058;2023-03-01T00:04:48;1.00;93.10
28247;DHT22;66191;53.178;22.058;2023-03-01T00:07:19;1.00;93.10
28247;DHT22;66191;53.178;22.058;2023-03-01T00:09:53;1.00;92.90
28247;DHT22;66191;53.178;22.058;2023-03-01T00:12:25;1.00;92.80
28247;DHT22;66191;53.178;22.058;2023-03-01T00:14:57;1.10;92.70
28247;DHT22;66191;53.178;22.058;2023-03-01T00:17:28;1.00;92.70
28247;DHT22;66191;53.178;22.058;2023-03-01T00:19:59;1.00;92.70
28247;DHT22;66191;53.178;22.058;2023-03-01T00:22:30;1.00;92.80
28247;DHT22;66191;53.178;22.058;2023-03-01T00:25:04;0.90;92.80
28247;DHT22;66191;53.178;22.058;2023-03-01T00:27:35;0.90;92.70
28247;DHT22;66191;53.178;22.058;2023-03-01T00:30:08;0.90;92.80
28247;DHT22;66191;53.178;22.058;2023-03-01T00:32:39;0.90;92.90
28247;DHT22;66191;53.178;22.058;2023-03-01T00:35:10;1.00;93.00
28247;DHT22;66191;53.178;22.058;2023-03-01T00:37:42;1.00;93.00
28247;DHT22;66191;53.178;22.058;2023-03-01T00:40:17;1.00;93.10
28247;DHT22;66191;53.178;22.058;2023-03-01T00:42:48;1.00;93.20
28247;DHT22;66191;53.178;22.058;2023-03-01T00:45:19;1.00;93.20
28247;DHT22;66191;53.178;22.058;2023-03-01T00:47:50;1.00;93.20
28247;DHT22;66191;53.178;22.058;2023-03-01T00:50:22;1.00;93.30
28247;DHT22;66191;53.178;22.058;2023-03-01T00:52:53;1.00;93.20
28247;DHT22;66191;53.178;22.058;2023-03-01T00:55:27;1.00;93.10
28247;DHT22;66191;53.178;22.058;2023-03-01T00:57:58;1.10;93.20
28247;DHT22;66191;53.178;22.058;2023-03-01T01:00:29;1.10;93.10
28247;DHT22;66191;53.178;22.058;2023-03-01T01:03:01;1.10;93.00
28247;DHT22;66191;53.178;22.058;2023-03-01T01:05:35;1.10;93.10
28247;DHT22;66191;53.178;22.058;2023-03-01T01:08:06;1.10;93.00
28247;DHT22;66191;53.178;22.058;2023-03-01T01:10:40;1.10;93.00
28247;DHT22;66191;53.178;22.058;2023-03-01T01:13:14;1.20;93.00
28247;DHT22;66191;53.178;22.058;2023-03-01T01:15:45;1.10;92.90
28247;DHT22;66191;53.178;22.058;2023-03-01T01:18:16;1.10;93.00
28247;DHT22;66191;53.178;22.058;2023-03-01T01:20:47;1.10;93.20
28247;DHT22;66191;53.178;22.058;2023-03-01T01:23:19;1.10;93.20
28247;DHT22;66191;53.178;22.058;2023-03-01T01:25:52;1.20;93.20
28247;DHT22;66191;53.178;22.058;2023-03-01T01:28:23;1.20;93.20
28247;DHT22;66191;53.178;22.058;2023-03-01T01:30:54;1.20;93.30
28247;DHT22;66191;53.178;22.058;2023-03-01T01:33:25;1.20;93.30
28247;DHT22;66191;53.178;22.058;2023-03-01T01:35:56;1.20;93.40
28247;DHT22;66191;53.178;22.058;2023-03-01T01:38:27;1.20;93.30
28247;DHT22;66191;53.178;22.058;2023-03-01T01:41:01;1.30;93.40
28247;DHT22;66191;53.178;22.058;2023-03-01T01:43:35;1.30;93.20
28247;DHT22;66191;53.178;22.058;2023-03-01T01:46:10;1.20;93.10
28247;DHT22;66191;53.178;22.058;2023-03-01T01:48:48;1.20;93.20
28247;DHT22;66191;53.178;22.058;2023-03-01T01:51:24;1.30;93.30
28247;DHT22;66191;53.178;22.058;2023-03-01T01:53:59;1.30;93.20
28247;DHT22;66191;53.178;22.058;2023-03-01T01:56:34;1.30;93.30
28247;DHT22;66191;53.178;22.058;2023-03-01T01:59:08;1.30;93.20
28247;DHT22;66191;53.178;22.058;2023-03-01T02:01:40;1.30;93.20
28247;DHT22;66191;53.178;22.058;2023-03-01T02:04:11;1.30;93.20
28247;DHT22;66191;53.178;22.058;2023-03-01T02:06:47;1.40;93.20
28247;DHT22;66191;53.178;22.058;2023-03-01T02:09:20;1.40;93.20
28247;DHT22;66191;53.178;22.058;2023-03-01T02:11:55;1.40;93.20
28247;DHT22;66191;53.178;22.058;2023-03-01T02:14:26;1.40;93.20
28247;DHT22;66191;53.178;22.058;2023-03-01T02:16:58;1.40;93.20
28247;DHT22;66191;53.178;22.058;2023-03-01T02:19:39;1.50;93.20
28247;DHT22;66191;53.178;22.058;2023-03-01T02:22:20;1.50;93.20
28247;DHT22;66191;53.178;22.058;2023-03-01T02:25:00;1.50;93.20
28247;DHT22;66191;53.178;22.058;2023-03-01T02:27:42;1.50;93.20
28247;DHT22;66191;53.178;22.058;2023-03-01T02:30:21;1.50;93.20
28247;DHT22;66191;53.178;22.058;2023-03-01T02:32:55;1.50;93.30
28247;DHT22;66191;53.178;22.058;2023-03-01T02:35:32;1.50;93.20
28247;DHT22;66191;53.178;22.058;2023-03-01T02:38:07;1.50;93.20
28247;DHT22;66191;53.178;22.058;2023-03-01T02:40:39;1.60;93.30
28247;DHT22;66191;53.178;22.058;2023-03-01T02:43:13;1.60;93.20
28247;DHT22;66191;53.178;22.058;2023-03-01T02:45:51;1.60;93.30
28247;DHT22;66191;53.178;22.058;2023-03-01T02:48:23;1.60;93.40
28247;DHT22;66191;53.178;22.058;2023-03-01T02:51:04;1.70;93.40
28247;DHT22;66191;53.178;22.058;2023-03-01T02:53:44;1.60;93.40
28247;DHT22;66191;53.178;22.058;2023-03-01T02:56:16;1.60;93.40
28247;DHT22;66191;53.178;22.058;2023-03-01T02:58:47;1.60;93.40
28247;DHT22;66191;53.178;22.058;2023-03-01T03:01:22;1.70;93.50
28247;DHT22;66191;53.178;22.058;2023-03-01T03:04:07;1.60;93.50
28247;DHT22;66191;53.178;22.058;2023-03-01T03:06:39;1.70;93.70
28247;DHT22;66191;53.178;22.058;2023-03-01T03:09:11;1.70;93.80
28247;DHT22;66191;53.178;22.058;2023-03-01T03:11:44;1.70;93.90
28247;DHT22;66191;53.178;22.058;2023-03-01T03:14:16;1.70;94.10
28247;DHT22;66191;53.178;22.058;2023-03-01T03:16:51;1.70;94.50
28247;DHT22;66191;53.178;22.058;2023-03-01T03:19:22;1.70;94.30
28247;DHT22;66191;53.178;22.058;2023-03-01T03:21:53;1.70;94.40
28247;DHT22;66191;53.178;22.058;2023-03-01T03:24:24;1.80;94.60
28247;DHT22;66191;53.178;22.058;2023-03-01T03:26:56;1.80;94.70
28247;DHT22;66191;53.178;22.058;2023-03-01T03:29:27;1.80;94.80
28247;DHT22;66191;53.178;22.058;2023-03-01T03:32:00;1.80;94.90
28247;DHT22;66191;53.178;22.058;2023-03-01T03:34:31;1.80;95.00
28247;DHT22;66191;53.178;22.058;2023-03-01T03:37:02;1.80;94.90
28247;DHT22;66191;53.178;22.058;2023-03-01T03:39:53;1.80;94.90
28247;DHT22;66191;53.178;22.058;2023-03-01T03:42:24;1.90;94.90
28247;DHT22;66191;53.178;22.058;2023-03-01T03:44:55;1.90;94.90
28247;DHT22;66191;53.178;22.058;2023-03-01T03:47:28;1.80;94.90
28247;DHT22;66191;53.178;22.058;2023-03-01T03:50:00;1.90;95.00
28247;DHT22;66191;53.178;22.058;2023-03-01T03:52:31;1.90;94.90
28247;DHT22;66191;53.178;22.058;2023-03-01T03:55:02;1.90;94.90
28247;DHT22;66191;53.178;22.058;2023-03-01T03:57:37;1.90;95.00
28247;DHT22;66191;53.178;22.058;2023-03-01T04:00:11;1.80;95.10
28247;DHT22;66191;53.178;22.058;2023-03-01T04:02:46;1.90;95.20
28247;DHT22;66191;53.178;22.058;2023-03-01T04:05:18;1.90;95.20
28247;DHT22;66191;53.178;22.058;2023-03-01T04:07:49;1.90;95.30
28247;DHT22;66191;53.178;22.058;2023-03-01T04:10:30;1.90;95.40
28247;DHT22;66191;53.178;22.058;2023-03-01T04:13:02;1.90;95.50
28247;DHT22;66191;53.178;22.058;2023-03-01T04:15:34;1.90;95.50
28247;DHT22;66191;53.178;22.058;2023-03-01T04:18:08;1.90;95.60
28247;DHT22;66191;53.178;22.058;2023-03-01T04:20:40;2.00;95.60
28247;DHT22;66191;53.178;22.058;2023-03-01T04:23:13;2.00;95.60
28247;DHT22;66191;53.178;22.058;2023-03-01T04:25:48;2.00;95.60
28247;DHT22;66191;53.178;22.058;2023-03-01T04:28:25;2.00;95.60
28247;DHT22;66191;53.178;22.058;2023-03-01T04:30:58;2.00;95.60
28247;DHT22;66191;53.178;22.058;2023-03-01T04:33:31;2.00;95.60
28247;DHT22;66191;53.178;22.058;2023-03-01T04:36:03;2.10;95.60
28247;DHT22;66191;53.178;22.058;2023-03-01T04:38:36;2.10;95.60
28247;DHT22;66191;53.178;22.058;2023-03-01T04:41:09;2.00;95.60
28247;DHT22;66191;53.178;22.058;2023-03-01T04:43:41;2.00;95.60
28247;DHT22;66191;53.178;22.058;2023-03-01T04:46:14;2.00;95.70
28247;DHT22;66191;53.178;22.058;2023-03-01T04:48:48;2.00;95.60
28247;DHT22;66191;53.178;22.058;2023-03-01T04:51:19;2.00;95.60
28247;DHT22;66191;53.178;22.058;2023-03-01T04:53:49;2.00;95.70
28247;DHT22;66191;53.178;22.058;2023-03-01T04:56:21;2.00;95.80
28247;DHT22;66191;53.178;22.058;2023-03-01T04:58:52;2.00;95.80
28247;DHT22;66191;53.178;22.058;2023-03-01T05:01:24;2.00;96.10
28247;DHT22;66191;53.178;22.058;2023-03-01T05:03:58;2.00;96.00
28247;DHT22;66191;53.178;22.058;2023-03-01T05:06:34;2.00;96.00
28247;DHT22;66191;53.178;22.058;2023-03-01T05:09:04;2.00;96.10
28247;DHT22;66191;53.178;22.058;2023-03-01T05:11:36;2.00;96.10
28247;DHT22;66191;53.178;22.058;2023-03-01T05:14:07;2.00;96.20
28247;DHT22;66191;53.178;22.058;2023-03-01T05:16:38;2.00;96.20
28247;DHT22;66191;53.178;22.058;2023-03-01T05:19:12;2.00;96.30
28247;DHT22;66191;53.178;22.058;2023-03-01T05:21:43;2.00;96.40
28247;DHT22;66191;53.178;22.058;2023-03-01T05:24:26;2.00;96.50
28247;DHT22;66191;53.178;22.058;2023-03-01T05:26:58;2.00;96.60
28247;DHT22;66191;53.178;22.058;2023-03-01T05:29:30;2.00;96.70
28247;DHT22;66191;53.178;22.058;2023-03-01T05:32:03;2.00;96.80
28247;DHT22;66191;53.178;22.058;2023-03-01T05:34:39;2.00;96.90
28247;DHT22;66191;53.178;22.058;2023-03-01T05:37:10;2.10;96.90
28247;DHT22;66191;53.178;22.058;2023-03-01T05:39:41;2.10;97.10
28247;DHT22;66191;53.178;22.058;2023-03-01T05:42:12;2.10;97.10
28247;DHT22;66191;53.178;22.058;2023-03-01T05:44:43;2.10;97.20
28247;DHT22;66191;53.178;22.058;2023-03-01T05:47:14;2.10;97.20
28247;DHT22;66191;53.178;22.058;2023-03-01T05:49:47;2.10;97.30
28247;DHT22;66191;53.178;22.058;2023-03-01T05:52:18;2.10;97.30
28247;DHT22;66191;53.178;22.058;2023-03-01T05:54:49;2.10;97.40
28247;DHT22;66191;53.178;22.058;2023-03-01T05:57:20;2.20;97.60
28247;DHT22;66191;53.178;22.058;2023-03-01T05:59:51;2.20;97.60
28247;DHT22;66191;53.178;22.058;2023-03-01T06:02:22;2.30;97.70
28247;DHT22;66191;53.178;22.058;2023-03-01T06:04:57;2.30;97.70
28247;DHT22;66191;53.178;22.058;2023-03-01T06:07:28;2.30;97.80
28247;DHT22;66191;53.178;22.058;2023-03-01T06:09:59;2.30;97.90
28247;DHT22;66191;53.178;22.058;2023-03-01T06:12:31;2.30;98.00
28247;DHT22;66191;53.178;22.058;2023-03-01T06:15:04;2.30;98.10
28247;DHT22;66191;53.178;22.058;2023-03-01T06:17:39;2.30;98.20
28247;DHT22;66191;53.178;22.058;2023-03-01T06:20:14;2.30;98.20
28247;DHT22;66191;53.178;22.058;2023-03-01T06:22:47;2.30;98.30
28247;DHT22;66191;53.178;22.058;2023-03-01T06:25:21;2.20;98.50
28247;DHT22;66191;53.178;22.058;2023-03-01T06:27:53;2.30;98.60
28247;DHT22;66191;53.178;22.058;2023-03-01T06:30:25;2.30;98.80
28247;DHT22;66191;53.178;22.058;2023-03-01T06:32:57;2.20;98.80
28247;DHT22;66191;53.178;22.058;2023-03-01T06:35:34;2.20;99.10
28247;DHT22;66191;53.178;22.058;2023-03-01T06:38:05;2.20;99.30
28247;DHT22;66191;53.178;22.058;2023-03-01T06:40:35;2.20;99.80
28247;DHT22;66191;53.178;22.058;2023-03-01T06:43:07;2.10;99.90
28247;DHT22;66191;53.178;22.058;2023-03-01T06:45:38;2.00;99.90
28247;DHT22;66191;53.178;22.058;2023-03-01T06:48:09;2.00;99.90
28247;DHT22;66191;53.178;22.058;2023-03-01T06:50:42;2.00;99.90
28247;DHT22;66191;53.178;22.058;2023-03-01T06:53:14;2.00;99.90
28247;DHT22;66191;53.178;22.058;2023-03-01T06:55:44;2.00;99.90
28247;DHT22;66191;53.178;22.058;2023-03-01T06:58:16;1.90;99.90
28247;DHT22;66191;53.178;22.058;2023-03-01T07:00:46;1.90;99.90
28247;DHT22;66191;53.178;22.058;2023-03-01T07:03:17;1.90;99.90
28247;DHT22;66191;53.178;22.058;2023-03-01T07:05:52;1.80;99.90
28247;DHT22;66191;53.178;22.058;2023-03-01T07:08:23;1.80;99.90
28247;DHT22;66191;53.178;22.058;2023-03-01T07:10:57;1.80;99.90
28247;DHT22;66191;53.178;22.058;2023-03-01T07:13:29;1.80;99.90
28247;DHT22;66191;53.178;22.058;2023-03-01T07:16:00;1.80;99.90
28247;DHT22;66191;53.178;22.058;2023-03-01T07:18:32;1.90;99.90
28247;DHT22;66191;53.178;22.058;2023-03-01T07:21:11;1.90;99.90
28247;DHT22;66191;53.178;22.058;2023-03-01T07:23:46;1.90;99.90
28247;DHT22;66191;53.178;22.058;2023-03-01T07:26:17;1.90;99.90
28247;DHT22;66191;53.178;22.058;2023-03-01T07:28:49;1.90;99.90
28247;DHT22;66191;53.178;22.058;2023-03-01T07:31:20;1.90;99.90
28247;DHT22;66191;53.178;22.058;2023-03-01T07:33:52;1.90;99.90
28247;DHT22;66191;53.178;22.058;2023-03-01T07:36:26;1.90;99.90
28247;DHT22;66191;53.178;22.058;2023-03-01T07:38:58;2.00;99.90
28247;DHT22;66191;53.178;22.058;2023-03-01T07:41:30;2.00;99.90
28247;DHT22;66191;53.178;22.058;2023-03-01T07:44:03;2.00;99.90
28247;DHT22;66191;53.178;22.058;2023-03-01T07:46:34;2.00;99.90
28247;DHT22;66191;53.178;22.058;2023-03-01T07:49:05;2.00;99.90
28247;DHT22;66191;53.178;22.058;2023-03-01T07:51:38;2.00;99.90
28247;DHT22;66191;53.178;22.058;2023-03-01T07:54:10;2.00;99.90
28247;DHT22;66191;53.178;22.058;2023-03-01T07:56:40;2.10;99.90
28247;DHT22;66191;53.178;22.058;2023-03-01T07:59:12;2.00;99.90
28247;DHT22;66191;53.178;22.058;2023-03-01T08:01:42;2.00;99.90
28247;DHT22;66191;53.178;22.058;2023-03-01T08:04:14;2.00;99.90
28247;DHT22;66191;53.178;22.058;2023-03-01T08:06:47;1.90;99.90
28247;DHT22;66191;53.178;22.058;2023-03-01T08:09:19;1.90;99.90
28247;DHT22;66191;53.178;22.058;2023-03-01T08:11:50;1.90;99.90
28247;DHT22;66191;53.178;22.058;2023-03-01T08:14:22;2.00;99.90
28247;DHT22;66191;53.178;22.058;2023-03-01T08:16:53;2.00;99.90
28247;DHT22;66191;53.178;22.058;2023-03-01T08:19:24;2.00;99.90
28247;DHT22;66191;53.178;22.058;2023-03-01T08:21:58;2.10;99.90
28247;DHT22;66191;53.178;22.058;2023-03-01T08:24:29;2.10;99.90
28247;DHT22;66191;53.178;22.058;2023-03-01T08:27:00;2.00;99.90
28247;DHT22;66191;53.178;22.058;2023-03-01T08:29:32;2.10;99.90
28247;DHT22;66191;53.178;22.058;2023-03-01T08:32:03;2.10;99.90
28247;DHT22;66191;53.178;22.058;2023-03-01T08:34:35;2.10;99.90
28247;DHT22;66191;53.178;22.058;2023-03-01T08:37:10;2.20;99.90
28247;DHT22;66191;53.178;22.058;2023-03-01T08:39:41;2.30;99.90
28247;DHT22;66191;53.178;22.058;2023-03-01T08:42:12;2.20;99.90
28247;DHT22;66191;53.178;22.058;2023-03-01T08:44:43;2.20;99.90
28247;DHT22;66191;53.178;22.058;2023-03-01T08:47:14;2.30;99.90
28247;DHT22;66191;53.178;22.058;2023-03-01T08:49:45;2.20;99.90
28247;DHT22;66191;53.178;22.058;2023-03-01T08:52:19;2.20;99.90
28247;DHT22;66191;53.178;22.058;2023-03-01T08:54:50;2.20;99.90
28247;DHT22;66191;53.178;22.058;2023-03-01T08:57:21;2.20;99.90
28247;DHT22;66191;53.178;22.058;2023-03-01T08:59:52;2.20;99.90
28247;DHT22;66191;53.178;22.058;2023-03-01T09:02:23;2.30;99.90
28247;DHT22;66191;53.178;22.058;2023-03-01T09:04:54;2.30;99.90
28247;DHT22;66191;53.178;22.058;2023-03-01T09:07:29;2.30;99.90
28247;DHT22;66191;53.178;22.058;2023-03-01T09:10:00;2.30;99.90
28247;DHT22;66191;53.178;22.058;2023-03-01T09:12:30;2.40;99.90
28247;DHT22;66191;53.178;22.058;2023-03-01T09:15:02;2.40;99.90
28247;DHT22;66191;53.178;22.058;2023-03-01T09:17:33;2.40;99.90
28247;DHT22;66191;53.178;22.058;2023-03-01T09:20:05;2.40;99.90
28247;DHT22;66191;53.178;22.058;2023-03-01T09:22:38;2.40;99.90
28247;DHT22;66191;53.178;22.058;2023-03-01T09:25:10;2.40;99.90
28247;DHT22;66191;53.178;22.058;2023-03-01T09:27:41;2.40;99.90
28247;DHT22;66191;53.178;22.058;2023-03-01T09:30:13;2.40;99.90
28247;DHT22;66191;53.178;22.058;2023-03-01T09:32:44;2.30;99.90
28247;DHT22;66191;53.178;22.058;2023-03-01T09:35:15;2.30;99.90
28247;DHT22;66191;53.178;22.058;2023-03-01T09:37:49;2.20;99.90
28247;DHT22;66191;53.178;22.058;2023-03-01T09:40:24;2.30;99.90
28247;DHT22;66191;53.178;22.058;2023-03-01T09:43:04;2.30;99.90
28247;DHT22;66191;53.178;22.058;2023-03-01T09:45:41;2.40;99.90
28247;DHT22;66191;53.178;22.058;2023-03-01T09:48:16;2.40;99.90
28247;DHT22;66191;53.178;22.058;2023-03-01T09:50:50;2.50;99.90
28247;DHT22;66191;53.178;22.058;2023-03-01T09:53:30;2.60;99.90
28247;DHT22;66191;53.178;22.058;2023-03-01T09:56:05;2.60;99.90
28247;DHT22;66191;53.178;22.058;2023-03-01T09:58:48;2.70;99.90
28247;DHT22;66191;53.178;22.058;2023-03-01T10:01:28;2.80;99.90
28247;DHT22;66191;53.178;22.058;2023-03-01T10:04:19;2.80;99.90
28247;DHT22;66191;53.178;22.058;2023-03-01T10:07:02;2.80;99.90
28247;DHT22;66191;53.178;22.058;2023-03-01T10:09:39;2.80;99.90
28247;DHT22;66191;53.178;22.058;2023-03-01T10:12:13;2.80;99.90
28247;DHT22;66191;53.178;22.058;2023-03-01T10:14:54;2.80;99.90
28247;DHT22;66191;53.178;22.058;2023-03-01T10:17:32;2.90;99.90
28247;DHT22;66191;53.178;22.058;2023-03-01T10:20:19;2.80;99.90
28247;DHT22;66191;53.178;22.058;2023-03-01T10:22:51;2.80;99.90
28247;DHT22;66191;53.178;22.058;2023-03-01T10:25:45;2.80;99.90
28247;DHT22;66191;53.178;22.058;2023-03-01T10:28:20;2.70;99.90
28247;DHT22;66191;53.178;22.058;2023-03-01T10:30:57;2.80;99.90
28247;DHT22;66191;53.178;22.058;2023-03-01T10:33:33;2.80;99.90
28247;DHT22;66191;53.178;22.058;2023-03-01T10:36:07;2.80;99.90
28247;DHT22;66191;53.178;22.058;2023-03-01T10:38:53;2.80;99.90
28247;DHT22;66191;53.178;22.058;2023-03-01T10:41:28;2.80;99.90
28247;DHT22;66191;53.178;22.058;2023-03-01T10:44:00;2.80;99.90
28247;DHT22;66191;53.178;22.058;2023-03-01T10:46:34;2.80;99.90
28247;DHT22;66191;53.178;22.058;2023-03-01T10:49:12;2.80;99.90
28247;DHT22;66191;53.178;22.058;2023-03-01T10:51:46;2.80;99.90
28247;DHT22;66191;53.178;22.058;2023-03-01T10:54:20;2.80;99.90
28247;DHT22;66191;53.178;22.058;2023-03-01T10:56:55;2.80;99.90
28247;DHT22;66191;53.178;22.058;2023-03-01T10:59:29;2.70;99.90
28247;DHT22;66191;53.178;22.058;2023-03-01T11:02:21;2.70;99.90
28247;DHT22;66191;53.178;22.058;2023-03-01T11:04:59;2.70;99.90
28247;DHT22;66191;53.178;22.058;2023-03-01T11:07:30;2.80;99.90
28247;DHT22;66191;53.178;22.058;2023-03-01T11:10:11;2.80;99.90
28247;DHT22;66191;53.178;22.058;2023-03-01T11:12:45;2.80;99.90
28247;DHT22;66191;53.178;22.058;2023-03-01T11:15:22;2.80;99.90
28247;DHT22;66191;53.178;22.058;2023-03-01T11:17:54;2.90;99.90
28247;DHT22;66191;53.178;22.058;2023-03-01T11:20:41;2.90;99.90
28247;DHT22;66191;53.178;22.058;2023-03-01T11:23:13;3.00;99.90
28247;DHT22;66191;53.178;22.058;2023-03-01T11:25:49;3.00;99.90
28247;DHT22;66191;53.178;22.058;2023-03-01T11:28:27;3.00;99.90
28247;DHT22;66191;53.178;22.058;2023-03-01T11:31:02;3.00;99.90
28247;DHT22;66191;53.178;22.058;2023-03-01T11:33:42;3.00;99.90
28247;DHT22;66191;53.178;22.058;2023-03-01T11:36:19;3.00;99.90
28247;DHT22;66191;53.178;22.058;2023-03-01T11:38:53;2.90;99.90
28247;DHT22;66191;53.178;22.058;2023-03-01T11:41:30;2.90;99.90
28247;DHT22;66191;53.178;22.058;2023-03-01T11:44:12;2.90;99.90
28247;DHT22;66191;53.178;22.058;2023-03-01T11:47:01;2.80;99.90
28247;DHT22;66191;53.178;22.058;2023-03-01T11:52:36;2.80;99.90
28247;DHT22;66191;53.178;22.058;2023-03-01T11:55:30;2.90;99.90
28247;DHT22;66191;53.178;22.058;2023-03-01T11:58:27;2.90;99.90
28247;DHT22;66191;53.178;22.058;2023-03-01T12:01:32;3.00;99.90
28247;DHT22;66191;53.178;22.058;2023-03-01T12:04:41;3.00;99.90
28247;DHT22;66191;53.178;22.058;2023-03-01T12:07:19;3.10;99.90
28247;DHT22;66191;53.178;22.058;2023-03-01T12:12:58;3.20;99.90
28247;DHT22;66191;53.178;22.058;2023-03-01T12:15:56;3.30;99.90
28247;DHT22;66191;53.178;22.058;2023-03-01T12:18:47;3.30;99.90
28247;DHT22;66191;53.178;22.058;2023-03-01T12:21:35;3.30;99.80
28247;DHT22;66191;53.178;22.058;2023-03-01T12:27:25;3.50;99.70
28247;DHT22;66191;53.178;22.058;2023-03-01T12:30:16;3.50;99.40
28247;DHT22;66191;53.178;22.058;2023-03-01T12:33:01;3.50;99.50
28247;DHT22;66191;53.178;22.058;2023-03-01T12:35:58;3.50;99.40
28247;DHT22;66191;53.178;22.058;2023-03-01T12:38:41;3.50;99.50
28247;DHT22;66191;53.178;22.058;2023-03-01T12:44:19;3.50;99.20
28247;DHT22;66191;53.178;22.058;2023-03-01T12:47:05;3.50;99.20
28247;DHT22;66191;53.178;22.058;2023-03-01T12:49:40;3.60;99.40
28247;DHT22;66191;53.178;22.058;2023-03-01T12:52:18;3.60;99.20
28247;DHT22;66191;53.178;22.058;2023-03-01T12:54:52;3.50;99.30
28247;DHT22;66191;53.178;22.058;2023-03-01T12:57:29;3.60;99.40
28247;DHT22;66191;53.178;22.058;2023-03-01T13:00:20;3.60;99.30
28247;DHT22;66191;53.178;22.058;2023-03-01T13:02:59;3.60;99.30
28247;DHT22;66191;53.178;22.058;2023-03-01T13:05:39;3.60;99.40
28247;DHT22;66191;53.178;22.058;2023-03-01T13:08:19;3.60;99.40
28247;DHT22;66191;53.178;22.058;2023-03-01T13:10:55;3.60;99.40
28247;DHT22;66191;53.178;22.058;2023-03-01T13:13:28;3.70;99.40
28247;DHT22;66191;53.178;22.058;2023-03-01T13:16:38;3.70;99.30
28247;DHT22;66191;53.178;22.058;2023-03-01T13:19:13;3.80;99.40
28247;DHT22;66191;53.178;22.058;2023-03-01T13:21:46;3.80;99.20
28247;DHT22;66191;53.178;22.058;2023-03-01T13:24:28;3.90;99.30
28247;DHT22;66191;53.178;22.058;2023-03-01T13:27:11;3.90;99.20
28247;DHT22;66191;53.178;22.058;2023-03-01T13:29:51;3.90;98.90
28247;DHT22;66191;53.178;22.058;2023-03-01T13:32:24;4.00;98.90
28247;DHT22;66191;53.178;22.058;2023-03-01T13:38:38;4.00;98.70
28247;DHT22;66191;53.178;22.058;2023-03-01T13:41:13;4.00;98.80
28247;DHT22;66191;53.178;22.058;2023-03-01T13:43:46;4.00;98.70
28247;DHT22;66191;53.178;22.058;2023-03-01T13:46:20;4.00;98.70
28247;DHT22;66191;53.178;22.058;2023-03-01T13:48:55;4.00;98.70
28247;DHT22;66191;53.178;22.058;2023-03-01T13:51:28;3.90;98.70
28247;DHT22;66191;53.178;22.058;2023-03-01T13:54:00;3.90;98.60
28247;DHT22;66191;53.178;22.058;2023-03-01T13:56:37;3.80;98.50
28247;DHT22;66191;53.178;22.058;2023-03-01T13:59:14;3.80;98.70
28247;DHT22;66191;53.178;22.058;2023-03-01T14:01:52;3.80;98.70
28247;DHT22;66191;53.178;22.058;2023-03-01T14:04:25;3.80;98.70
28247;DHT22;66191;53.178;22.058;2023-03-01T14:07:10;3.80;98.70
28247;DHT22;66191;53.178;22.058;2023-03-01T14:09:43;3.70;98.80
28247;DHT22;66191;53.178;22.058;2023-03-01T14:12:36;3.70;98.80
28247;DHT22;66191;53.178;22.058;2023-03-01T14:15:17;3.70;98.80
28247;DHT22;66191;53.178;22.058;2023-03-01T14:18:10;3.60;98.80
28247;DHT22;66191;53.178;22.058;2023-03-01T14:20:46;3.60;98.90
28247;DHT22;66191;53.178;22.058;2023-03-01T14:23:20;3.60;99.00
28247;DHT22;66191;53.178;22.058;2023-03-01T14:25:53;3.60;99.00
28247;DHT22;66191;53.178;22.058;2023-03-01T14:28:28;3.60;99.10
28247;DHT22;66191;53.178;22.058;2023-03-01T14:31:02;3.60;99.10
28247;DHT22;66191;53.178;22.058;2023-03-01T14:33:34;3.60;99.10
28247;DHT22;66191;53.178;22.058;2023-03-01T14:36:10;3.60;99.10
28247;DHT22;66191;53.178;22.058;2023-03-01T14:38:43;3.60;99.00
28247;DHT22;66191;53.178;22.058;2023-03-01T14:41:17;3.60;99.10
28247;DHT22;66191;53.178;22.058;2023-03-01T14:43:55;3.60;99.10
28247;DHT22;66191;53.178;22.058;2023-03-01T14:46:30;3.60;99.00
28247;DHT22;66191;53.178;22.058;2023-03-01T14:49:04;3.50;99.10
28247;DHT22;66191;53.178;22.058;2023-03-01T14:51:37;3.50;99.10
28247;DHT22;66191;53.178;22.058;2023-03-01T14:54:20;3.50;99.10
28247;DHT22;66191;53.178;22.058;2023-03-01T14:56:53;3.50;99.10
28247;DHT22;66191;53.178;22.058;2023-03-01T14:59:27;3.50;99.10
28247;DHT22;66191;53.178;22.058;2023-03-01T15:01:59;3.60;99.10
28247;DHT22;66191;53.178;22.058;2023-03-01T15:04:30;3.60;99.20
28247;DHT22;66191;53.178;22.058;2023-03-01T15:07:02;3.60;99.20
28247;DHT22;66191;53.178;22.058;2023-03-01T15:09:35;3.60;99.20
28247;DHT22;66191;53.178;22.058;2023-03-01T15:12:32;3.60;99.20
28247;DHT22;66191;53.178;22.058;2023-03-01T15:15:35;3.60;99.00
28247;DHT22;66191;53.178;22.058;2023-03-01T15:18:15;3.60;99.20
28247;DHT22;66191;53.178;22.058;2023-03-01T15:20:48;3.60;99.10
28247;DHT22;66191;53.178;22.058;2023-03-01T15:23:24;3.60;99.10
28247;DHT22;66191;53.178;22.058;2023-03-01T15:25:55;3.60;99.10
28247;DHT22;66191;53.178;22.058;2023-03-01T15:28:30;3.60;99.10
28247;DHT22;66191;53.178;22.058;2023-03-01T15:31:13;3.60;99.10
28247;DHT22;66191;53.178;22.058;2023-03-01T15:33:46;3.50;99.00
28247;DHT22;66191;53.178;22.058;2023-03-01T15:36:41;3.50;99.00
28247;DHT22;66191;53.178;22.058;2023-03-01T15:39:32;3.50;99.10
28247;DHT22;66191;53.178;22.058;2023-03-01T15:42:07;3.40;99.10
28247;DHT22;66191;53.178;22.058;2023-03-01T15:44:40;3.40;99.00
28247;DHT22;66191;53.178;22.058;2023-03-01T15:47:27;3.30;99.20
28247;DHT22;66191;53.178;22.058;2023-03-01T15:50:00;3.30;99.30
28247;DHT22;66191;53.178;22.058;2023-03-01T15:52:35;3.20;99.40
28247;DHT22;66191;53.178;22.058;2023-03-01T15:55:16;3.30;99.40
28247;DHT22;66191;53.178;22.058;2023-03-01T15:57:49;3.30;99.50
28247;DHT22;66191;53.178;22.058;2023-03-01T16:00:21;3.30;99.70
28247;DHT22;66191;53.178;22.058;2023-03-01T16:02:54;3.20;99.40
28247;DHT22;66191;53.178;22.058;2023-03-01T16:05:27;3.20;99.60
28247;DHT22;66191;53.178;22.058;2023-03-01T16:07:59;3.10;99.70
28247;DHT22;66191;53.178;22.058;2023-03-01T16:10:31;3.10;99.80
28247;DHT22;66191;53.178;22.058;2023-03-01T16:13:02;3.10;99.90
28247;DHT22;66191;53.178;22.058;2023-03-01T16:15:34;3.10;99.90
28247;DHT22;66191;53.178;22.058;2023-03-01T16:18:08;3.10;99.90
28247;DHT22;66191;53.178;22.058;2023-03-01T16:20:39;3.10;99.90
28247;DHT22;66191;53.178;22.058;2023-03-01T16:23:11;3.00;99.90
28247;DHT22;66191;53.178;22.058;2023-03-01T16:25:42;2.90;99.90
28247;DHT22;66191;53.178;22.058;2023-03-01T16:28:13;2.90;99.90
28247;DHT22;66191;53.178;22.058;2023-03-01T16:30:46;2.90;99.90
28247;DHT22;66191;53.178;22.058;2023-03-01T16:33:21;2.90;99.90
28247;DHT22;66191;53.178;22.058;2023-03-01T16:36:05;2.90;99.90